createdAt,value
2019-05-08T00:00:17.918Z,5.10
2019-05-08T00:05:08.844Z,4.90
2019-05-08T00:09:59.741Z,4.70
2019-05-08T00:14:51.981Z,4.80
2019-05-08T00:19:42.765Z,5.30
2019-05-08T00:24:32.538Z,5.50
2019-05-08T00:29:24.189Z,4.90
2019-05-08T00:34:15.839Z,4.70
2019-05-08T00:39:06.878Z,4.60
2019-05-08T00:43:57.841Z,4.40
2019-05-08T00:48:48.737Z,4.20
2019-05-08T00:53:39.707Z,4.10
2019-05-08T00:58:32.387Z,4.40
2019-05-08T01:03:22.244Z,5.00
2019-05-08T01:08:13.181Z,4.60
2019-05-08T01:13:04.083Z,4.60
2019-05-08T01:17:55.705Z,4.10
2019-05-08T01:22:46.596Z,4.10
2019-05-08T01:27:48.631Z,3.90
2019-05-08T01:32:28.392Z,3.70
2019-05-08T01:37:24.300Z,3.60
2019-05-08T01:42:15.445Z,4.10
2019-05-08T01:47:12.245Z,4.40
2019-05-08T01:52:01.754Z,4.40
2019-05-08T01:56:52.574Z,3.80
2019-05-08T02:01:43.432Z,3.80
2019-05-08T02:06:34.325Z,3.60
2019-05-08T02:11:25.964Z,3.20
2019-05-08T02:16:17.642Z,3.20
2019-05-08T02:21:08.632Z,3.10
2019-05-08T02:25:59.529Z,3.60
2019-05-08T02:30:53.158Z,4.10
2019-05-08T02:35:43.219Z,3.70
2019-05-08T02:40:33.752Z,3.50
2019-05-08T02:45:24.641Z,3.50
2019-05-08T02:50:15.590Z,3.30
2019-05-08T02:55:06.495Z,3.00
2019-05-08T03:00:00.120Z,2.80
2019-05-08T03:04:51.292Z,3.10
2019-05-08T03:09:41.285Z,3.10
2019-05-08T03:14:31.621Z,3.80
2019-05-08T03:19:22.529Z,3.80
2019-05-08T03:24:13.444Z,3.60
2019-05-08T03:29:12.603Z,3.10
2019-05-08T03:33:56.052Z,3.10
2019-05-08T03:38:47.855Z,2.90
2019-05-08T03:43:40.407Z,2.80
2019-05-08T03:53:50.223Z,2.90
2019-05-08T03:58:40.893Z,3.70
2019-05-08T04:03:32.239Z,3.60
2019-05-08T04:08:23.193Z,3.60
2019-05-08T04:13:14.098Z,3.40
2019-05-08T04:18:05.016Z,3.20
2019-05-08T04:22:55.917Z,3.10
2019-05-08T04:27:50.135Z,3.00
2019-05-08T04:32:40.266Z,2.90
2019-05-08T04:37:31.270Z,2.90
2019-05-08T04:42:20.316Z,3.40
2019-05-08T04:47:14.552Z,4.00
2019-05-08T04:52:05.470Z,4.10
2019-05-08T04:57:00.677Z,3.80
2019-05-08T05:01:51.035Z,3.80
2019-05-08T05:06:40.924Z,3.80
2019-05-08T05:11:30.618Z,3.80
2019-05-08T05:16:22.249Z,4.10
2019-05-08T05:21:13.905Z,4.60
2019-05-08T05:26:04.809Z,4.60
2019-05-08T05:30:56.456Z,5.70
2019-05-08T05:35:49.260Z,5.70
2019-05-08T05:40:39.921Z,5.70
2019-05-08T05:45:30.131Z,5.60
2019-05-08T05:50:21.050Z,5.70
2019-05-08T05:55:11.942Z,5.80
2019-05-08T06:00:04.386Z,6.10
2019-05-08T06:04:55.283Z,6.10
2019-05-08T06:09:46.208Z,6.60
2019-05-08T06:14:39.236Z,7.50
2019-05-08T06:19:29.916Z,7.70
2019-05-08T06:24:20.088Z,7.60
2019-05-08T06:29:09.876Z,7.60
2019-05-08T06:34:00.765Z,7.70
2019-05-08T06:38:51.663Z,7.80
2019-05-08T06:43:45.442Z,7.90
2019-05-08T06:48:34.610Z,8.10
2019-05-08T06:53:26.270Z,9.20
2019-05-08T06:58:17.180Z,9.20
2019-05-08T07:03:09.856Z,9.30
2019-05-08T07:08:00.283Z,9.30
2019-05-08T07:12:50.652Z,9.40
2019-05-08T07:17:43.224Z,9.60
2019-05-08T07:22:34.149Z,9.60
2019-05-08T07:27:25.063Z,9.90
2019-05-08T07:32:16.182Z,10.70
2019-05-08T07:37:13.912Z,11.10
2019-05-08T07:42:04.825Z,11.20
2019-05-08T07:46:55.730Z,11.30
2019-05-08T07:51:49.062Z,11.30
2019-05-08T07:56:39.605Z,11.40
2019-05-08T08:01:39.194Z,11.50
2019-05-08T08:06:20.268Z,11.90
2019-05-08T08:11:11.114Z,12.60
2019-05-08T08:16:02.894Z,12.70
2019-05-08T08:20:53.805Z,12.70
2019-05-08T08:25:44.713Z,12.60
2019-05-08T08:30:35.619Z,12.70
2019-05-08T08:35:26.533Z,12.70
2019-05-08T08:40:19.745Z,13.10
2019-05-08T08:45:09.525Z,13.70
2019-05-08T08:50:00.324Z,13.80
2019-05-08T08:54:51.306Z,13.70
2019-05-08T08:59:42.219Z,13.60
2019-05-08T09:04:33.868Z,13.60
2019-05-08T09:09:24.802Z,13.60
2019-05-08T09:14:15.726Z,13.90
2019-05-08T09:19:09.059Z,14.50
2019-05-08T09:23:59.512Z,14.70
2019-05-08T09:28:49.627Z,14.60
2019-05-08T09:33:40.346Z,14.50
2019-05-08T09:38:31.776Z,14.50
2019-05-08T09:43:22.254Z,14.50
2019-05-08T09:48:13.144Z,14.90
2019-05-08T09:53:04.789Z,15.60
2019-05-08T09:57:55.699Z,15.50
2019-05-08T10:02:53.066Z,15.40
2019-05-08T10:07:39.869Z,15.40
2019-05-08T10:12:29.933Z,15.40
2019-05-08T10:17:20.296Z,15.70
2019-05-08T10:22:11.024Z,16.30
2019-05-08T10:27:03.412Z,16.40
2019-05-08T10:31:52.833Z,16.30
2019-05-08T10:36:43.723Z,16.30
2019-05-08T10:41:34.752Z,16.30
2019-05-08T10:46:25.650Z,16.40
2019-05-08T10:51:16.570Z,17.00
2019-05-08T10:56:09.572Z,17.30
2019-05-08T11:00:59.703Z,17.30
2019-05-08T11:05:53.834Z,17.20
2019-05-08T11:10:43.701Z,17.50
2019-05-08T11:15:34.622Z,17.50
2019-05-08T11:20:25.521Z,17.90
2019-05-08T11:25:18.052Z,19.00
2019-05-08T11:30:09.545Z,18.90
2019-05-08T11:35:00.337Z,19.00
2019-05-08T11:39:52.165Z,19.00
2019-05-08T11:44:52.558Z,19.40
2019-05-08T11:49:44.597Z,20.00
2019-05-08T11:54:35.487Z,20.00
2019-05-08T11:59:26.374Z,20.20
2019-05-08T12:04:17.268Z,20.20
2019-05-08T12:09:11.296Z,20.20
2019-05-08T12:13:59.859Z,20.60
2019-05-08T12:18:51.515Z,21.10
2019-05-08T12:23:42.424Z,21.10
2019-05-08T12:28:33.331Z,21.20
2019-05-08T12:33:25.840Z,21.10
2019-05-08T12:38:16.753Z,21.10
2019-05-08T12:43:11.048Z,21.10
2019-05-08T12:47:59.803Z,21.30
2019-05-08T12:52:50.167Z,21.70
2019-05-08T12:57:40.883Z,21.50
2019-05-08T13:02:31.545Z,21.10
2019-05-08T13:07:22.456Z,20.80
2019-05-08T13:12:13.552Z,20.70
2019-05-08T13:17:05.185Z,21.30
2019-05-08T13:21:56.113Z,21.30
2019-05-08T13:26:47.000Z,21.00
2019-05-08T13:31:37.979Z,20.60
2019-05-08T13:36:35.800Z,20.40
2019-05-08T13:41:19.824Z,20.40
2019-05-08T13:46:10.821Z,20.80
2019-05-08T13:51:02.717Z,20.90
2019-05-08T13:55:53.711Z,20.60
2019-05-08T14:00:46.456Z,20.20
2019-05-08T14:05:35.564Z,19.90
2019-05-08T14:10:26.520Z,19.90
2019-05-08T14:15:19.527Z,20.40
2019-05-08T14:20:10.212Z,20.40
2019-05-08T14:25:00.720Z,19.80
2019-05-08T14:29:51.631Z,19.80
2019-05-08T14:34:50.329Z,19.50
2019-05-08T14:39:40.067Z,19.60
2019-05-08T14:44:31.237Z,20.00
2019-05-08T14:49:22.904Z,19.70
2019-05-08T14:54:15.851Z,19.70
2019-05-08T14:59:04.805Z,19.30
2019-05-08T15:03:56.470Z,19.00
2019-05-08T15:08:49.445Z,19.00
2019-05-08T15:13:38.290Z,19.40
2019-05-08T15:18:29.944Z,19.20
2019-05-08T15:23:20.853Z,19.10
2019-05-08T15:28:11.756Z,18.90
2019-05-08T15:33:09.918Z,18.60
2019-05-08T15:38:01.171Z,19.00
2019-05-08T15:42:52.943Z,19.00
2019-05-08T15:47:43.858Z,19.00
2019-05-08T15:52:34.788Z,18.70
2019-05-08T15:57:25.740Z,18.30
2019-05-08T16:02:16.630Z,18.10
2019-05-08T16:07:09.769Z,18.20
2019-05-08T16:11:59.458Z,18.50
2019-05-08T16:16:49.970Z,18.50
2019-05-08T16:21:40.284Z,18.20
2019-05-08T16:26:31.193Z,17.90
2019-05-08T16:31:27.010Z,17.60
2019-05-08T16:36:18.792Z,18.00
2019-05-08T16:41:09.792Z,18.00
2019-05-08T16:46:00.690Z,18.10
2019-05-08T16:50:52.339Z,17.30
2019-05-08T16:55:44.716Z,17.30
2019-05-08T17:00:34.348Z,17.10
2019-05-08T17:05:31.356Z,16.90
2019-05-08T17:10:23.664Z,17.30
2019-05-08T17:15:13.673Z,17.60
2019-05-08T17:20:04.107Z,17.30
2019-05-08T17:24:57.924Z,17.00
2019-05-08T17:29:48.938Z,16.70
2019-05-08T17:34:39.893Z,16.60
2019-05-08T17:39:31.177Z,16.90
2019-05-08T17:44:23.750Z,17.00
2019-05-08T17:49:14.318Z,17.00
2019-05-08T17:54:04.332Z,16.70
2019-05-08T17:58:55.339Z,16.50
2019-05-08T18:03:46.247Z,16.30
2019-05-08T18:08:37.949Z,17.00
2019-05-08T18:13:28.851Z,17.00
2019-05-08T18:18:19.826Z,16.90
2019-05-08T18:23:17.573Z,16.30
2019-05-08T18:28:08.615Z,16.30
2019-05-08T18:33:01.200Z,16.30
2019-05-08T18:37:55.297Z,16.30
2019-05-08T18:42:44.002Z,16.70
2019-05-08T18:47:34.045Z,16.60
2019-05-08T18:52:24.904Z,16.20
2019-05-08T18:57:15.815Z,16.00
2019-05-08T19:02:06.728Z,15.80
2019-05-08T19:07:11.395Z,15.90
2019-05-08T19:11:48.609Z,16.40
2019-05-08T19:16:39.532Z,16.40
2019-05-08T19:21:30.507Z,16.10
2019-05-08T19:26:23.359Z,15.90
2019-05-08T19:31:13.298Z,15.60
2019-05-08T19:36:04.316Z,15.60
2019-05-08T19:40:55.279Z,16.10
2019-05-08T19:45:46.193Z,16.20
2019-05-08T19:50:37.100Z,15.90
2019-05-08T19:55:28.748Z,15.40
2019-05-08T20:00:19.709Z,15.40
2019-05-08T20:05:10.587Z,15.30
2019-05-08T20:10:03.591Z,15.70
2019-05-08T20:14:54.339Z,16.10
2019-05-08T20:19:45.576Z,15.90
2019-05-08T20:24:34.340Z,15.60
2019-05-08T20:29:25.242Z,15.30
2019-05-08T20:34:28.896Z,15.10
2019-05-08T20:39:13.202Z,15.40
2019-05-08T20:44:03.579Z,15.80
2019-05-08T20:48:54.659Z,15.40
2019-05-08T20:53:45.567Z,15.40
2019-05-08T20:58:36.457Z,15.20
2019-05-08T21:03:27.354Z,15.00
2019-05-08T21:08:18.253Z,15.00
2019-05-08T21:13:09.901Z,15.60
2019-05-08T21:18:15.255Z,15.60
2019-05-08T21:28:10.543Z,15.10
2019-05-08T21:33:01.456Z,14.90
2019-05-08T21:37:53.813Z,14.80
2019-05-08T21:42:44.190Z,15.00
2019-05-08T21:47:34.246Z,15.50
2019-05-08T21:52:25.161Z,15.40
2019-05-08T21:57:17.552Z,14.80
2019-05-08T22:02:09.204Z,14.60
2019-05-08T22:07:00.116Z,14.60
2019-05-08T22:11:51.019Z,14.60
2019-05-08T22:16:44.339Z,15.20
2019-05-08T22:21:33.763Z,15.20
2019-05-08T22:26:25.421Z,15.00
2019-05-08T22:31:15.711Z,14.80
2019-05-08T22:36:07.349Z,14.30
2019-05-08T22:40:59.005Z,14.30
2019-05-08T22:45:59.441Z,14.30
2019-05-08T22:50:40.927Z,14.90
2019-05-08T22:55:33.567Z,14.70
2019-05-08T23:00:23.737Z,14.70
2019-05-08T23:05:15.217Z,14.20
2019-05-08T23:10:11.558Z,14.00
2019-05-08T23:14:57.816Z,13.90
2019-05-08T23:19:48.976Z,14.20
2019-05-08T23:24:39.881Z,14.70
2019-05-08T23:29:30.789Z,14.70
2019-05-08T23:34:25.603Z,14.40
2019-05-08T23:39:12.633Z,14.10
2019-05-08T23:44:05.295Z,13.90
2019-05-08T23:48:56.220Z,13.70
2019-05-08T23:53:47.117Z,13.90
2019-05-08T23:58:38.000Z,14.40
